createdAt,value
2023-02-04T00:00:58.105Z,82.97
2023-02-04T00:05:59.816Z,82.89
2023-02-04T00:11:01.718Z,83.05
2023-02-04T00:16:03.610Z,82.70
2023-02-04T00:21:05.632Z,82.22
2023-02-04T00:26:07.295Z,81.85
2023-02-04T00:31:09.094Z,82.04
2023-02-04T00:36:10.807Z,81.94
2023-02-04T00:41:12.441Z,81.04
2023-02-04T00:46:14.171Z,80.78
2023-02-04T00:51:15.864Z,80.93
2023-02-04T00:56:17.562Z,81.00
2023-02-04T01:01:19.570Z,81.78
2023-02-04T01:06:22.485Z,81.70
2023-02-04T01:11:24.362Z,82.41
2023-02-04T01:16:26.840Z,81.51
2023-02-04T01:21:29.829Z,82.13
2023-02-04T01:26:31.736Z,82.11
2023-02-04T01:31:34.091Z,82.85
2023-02-04T01:36:37.452Z,83.18
2023-02-04T01:41:39.922Z,83.73
2023-02-04T01:46:41.947Z,84.53
2023-02-04T01:51:43.787Z,84.38
2023-02-04T01:56:47.780Z,83.35
2023-02-04T02:01:54.093Z,82.83
2023-02-04T02:06:59.006Z,83.23
2023-02-04T02:12:02.963Z,83.17
2023-02-04T02:17:04.762Z,80.50
2023-02-04T02:22:25.992Z,78.49
2023-02-04T02:27:27.696Z,78.24
2023-02-04T02:32:32.939Z,78.79
2023-02-04T02:37:34.872Z,78.86
2023-02-04T02:42:37.579Z,78.47
2023-02-04T02:47:39.400Z,78.84
2023-02-04T02:52:41.149Z,79.56
2023-02-04T02:57:44.109Z,80.06
2023-02-04T03:02:53.588Z,79.54
2023-02-04T03:07:55.427Z,79.41
2023-02-04T03:12:58.824Z,79.03
2023-02-04T03:18:01.119Z,79.14
2023-02-04T03:23:02.919Z,78.94
2023-02-04T03:28:05.634Z,79.40
2023-02-04T03:33:07.404Z,79.48
2023-02-04T03:38:09.114Z,80.40
2023-02-04T03:43:10.864Z,80.15
2023-02-04T03:48:12.630Z,80.36
2023-02-04T03:53:14.893Z,80.25
2023-02-04T03:58:16.668Z,80.12
2023-02-04T04:03:18.380Z,80.09
2023-02-04T04:08:20.055Z,81.18
2023-02-04T04:13:21.957Z,81.71
2023-02-04T04:18:23.667Z,81.81
2023-02-04T04:23:25.710Z,81.92
2023-02-04T04:28:27.373Z,82.32
2023-02-04T04:33:29.199Z,82.89
2023-02-04T04:38:31.003Z,83.17
2023-02-04T04:43:32.645Z,83.80
2023-02-04T04:48:34.433Z,83.97
2023-02-04T04:53:36.130Z,84.23
2023-02-04T04:58:37.743Z,83.93
2023-02-04T05:03:39.692Z,83.90
2023-02-04T05:08:41.711Z,83.38
2023-02-04T05:13:43.437Z,83.10
2023-02-04T05:18:45.208Z,82.95
2023-02-04T05:23:46.847Z,82.73
2023-02-04T05:28:48.617Z,83.17
2023-02-04T05:33:50.249Z,82.86
2023-02-04T05:38:51.907Z,82.02
2023-02-04T05:43:53.848Z,82.27
2023-02-04T05:48:55.587Z,82.10
2023-02-04T05:53:57.249Z,82.07
2023-02-04T05:58:58.945Z,81.97
2023-02-04T06:04:00.662Z,82.19
2023-02-04T06:09:02.539Z,81.78
2023-02-04T06:14:04.214Z,81.51
2023-02-04T06:19:05.923Z,81.38
2023-02-04T06:24:08.093Z,81.50
2023-02-04T06:29:10.060Z,81.19
2023-02-04T06:34:11.838Z,81.43
2023-02-04T06:39:13.501Z,81.71
2023-02-04T06:44:15.268Z,82.19
2023-02-04T06:49:17.071Z,82.33
2023-02-04T06:54:18.863Z,82.55
2023-02-04T06:59:20.596Z,82.09
2023-02-04T07:04:22.281Z,82.05
2023-02-04T07:09:24.071Z,82.11
2023-02-04T07:14:25.891Z,82.08
2023-02-04T07:19:27.680Z,82.27
2023-02-04T07:24:29.526Z,82.37
2023-02-04T07:29:31.187Z,81.97
2023-02-04T07:34:32.868Z,82.42
2023-02-04T07:39:34.503Z,82.91
2023-02-04T07:44:37.702Z,82.99
2023-02-04T07:49:39.379Z,82.12
2023-02-04T07:54:41.223Z,80.82
2023-02-04T07:59:42.860Z,80.24
2023-02-04T08:04:44.496Z,78.44
2023-02-04T08:09:46.920Z,80.06
2023-02-04T08:14:48.531Z,82.83
2023-02-04T08:19:50.417Z,83.34
2023-02-04T08:24:52.174Z,83.85
2023-02-04T08:29:55.222Z,83.97
2023-02-04T08:34:59.938Z,83.49
2023-02-04T08:40:01.718Z,83.05
2023-02-04T08:45:03.947Z,84.11
2023-02-04T08:50:05.935Z,82.38
2023-02-04T08:55:08.328Z,81.87
2023-02-04T09:00:11.712Z,81.40
2023-02-04T09:05:13.457Z,81.30
2023-02-04T09:10:15.388Z,81.16
2023-02-04T09:15:17.426Z,80.81
2023-02-04T09:20:19.412Z,80.92
2023-02-04T09:25:21.265Z,80.74
2023-02-04T09:30:23.173Z,79.02
2023-02-04T09:35:24.942Z,79.00
2023-02-04T09:40:28.594Z,78.75
2023-02-04T09:45:36.138Z,78.67
2023-02-04T09:50:37.823Z,78.18
2023-02-04T09:55:43.201Z,77.10
2023-02-04T10:00:47.258Z,77.60
2023-02-04T10:05:51.521Z,77.40
2023-02-04T10:10:54.265Z,76.93
2023-02-04T10:15:56.426Z,75.40
2023-02-04T10:21:17.249Z,75.86
2023-02-04T10:26:21.317Z,75.07
2023-02-04T10:31:46.776Z,74.82
2023-02-04T10:36:57.694Z,75.24
2023-02-04T10:42:01.253Z,73.19
2023-02-04T10:47:15.291Z,72.72
2023-02-04T10:52:19.936Z,73.04
2023-02-04T10:57:28.250Z,71.59
2023-02-04T11:02:48.919Z,71.46
2023-02-04T11:07:51.505Z,73.03
2023-02-04T11:12:53.073Z,73.06
2023-02-04T11:18:29.948Z,72.96
2023-02-04T11:23:33.698Z,72.15
2023-02-04T11:28:41.074Z,72.28
2023-02-04T11:33:42.939Z,70.38
2023-02-04T11:38:49.895Z,70.35
2023-02-04T11:43:53.122Z,68.82
2023-02-04T11:48:57.120Z,69.84
2023-02-04T11:53:58.827Z,68.93
2023-02-04T11:59:00.506Z,68.59
2023-02-04T12:04:07.042Z,69.54
2023-02-04T12:09:24.782Z,69.31
2023-02-04T12:14:35.131Z,68.29
2023-02-04T12:19:36.786Z,67.42
2023-02-04T12:24:38.657Z,66.87
2023-02-04T12:29:40.453Z,64.33
2023-02-04T12:34:42.157Z,63.88
2023-02-04T12:39:43.785Z,64.22
2023-02-04T12:44:45.477Z,63.92
2023-02-04T12:49:47.194Z,62.38
2023-02-04T12:54:48.872Z,62.37
2023-02-04T12:59:50.993Z,62.79
2023-02-04T13:04:52.745Z,62.42
2023-02-04T13:09:54.447Z,62.88
2023-02-04T13:14:56.116Z,63.16
2023-02-04T13:19:57.839Z,61.38
2023-02-04T13:24:59.568Z,61.96
2023-02-04T13:30:01.613Z,62.47
2023-02-04T13:35:03.532Z,62.17
2023-02-04T13:40:07.723Z,62.30
2023-02-04T13:45:12.707Z,62.97
2023-02-04T13:50:16.216Z,61.62
2023-02-04T13:55:18.010Z,62.40
2023-02-04T14:00:19.888Z,61.67
2023-02-04T14:05:21.576Z,61.27
2023-02-04T14:10:24.947Z,61.18
2023-02-04T14:15:26.760Z,60.79
2023-02-04T14:20:28.456Z,61.46
2023-02-04T14:25:30.110Z,61.28
2023-02-04T14:30:33.020Z,61.33
2023-02-04T14:35:35.176Z,61.21
2023-02-04T14:40:37.049Z,61.33
2023-02-04T14:45:40.093Z,60.84
2023-02-04T14:50:41.778Z,59.45
2023-02-04T14:55:43.422Z,60.14
2023-02-04T15:00:45.232Z,59.92
2023-02-04T15:05:46.888Z,60.67
2023-02-04T15:10:48.554Z,61.18
2023-02-04T15:15:50.588Z,61.13
2023-02-04T15:20:52.385Z,60.93
2023-02-04T15:25:57.369Z,61.17
2023-02-04T15:30:59.209Z,60.57
2023-02-04T15:36:01.036Z,61.38
2023-02-04T15:41:04.428Z,60.70
2023-02-04T15:46:06.837Z,60.84
2023-02-04T15:51:09.324Z,60.93
2023-02-04T15:56:11.119Z,60.27
2023-02-04T16:01:15.039Z,60.46
2023-02-04T16:06:16.724Z,60.17
2023-02-04T16:11:18.404Z,61.09
2023-02-04T16:16:20.456Z,61.14
2023-02-04T16:21:22.341Z,61.16
2023-02-04T16:26:24.045Z,60.88
2023-02-04T16:31:25.957Z,61.59
2023-02-04T16:36:27.698Z,61.93
2023-02-04T16:41:29.489Z,62.87
2023-02-04T16:46:33.552Z,63.19
2023-02-04T16:51:35.436Z,63.38
2023-02-04T16:56:37.086Z,64.00
2023-02-04T17:01:38.834Z,64.57
2023-02-04T17:06:40.622Z,65.20
2023-02-04T17:11:42.456Z,65.57
2023-02-04T17:16:45.283Z,66.12
2023-02-04T17:21:47.322Z,66.49
2023-02-04T17:26:49.102Z,66.80
2023-02-04T17:31:52.646Z,66.94
2023-02-04T17:36:54.417Z,67.26
2023-02-04T17:41:56.129Z,67.19
2023-02-04T17:46:58.992Z,67.46
2023-02-04T17:52:01.020Z,67.96
2023-02-04T17:57:16.568Z,68.72
2023-02-04T18:02:29.578Z,68.81
2023-02-04T18:07:31.683Z,68.88
2023-02-04T18:12:34.451Z,69.14
2023-02-04T18:17:36.130Z,69.67
2023-02-04T18:22:37.799Z,69.84
2023-02-04T18:27:39.518Z,70.63
2023-02-04T18:32:42.109Z,70.70
2023-02-04T18:37:48.977Z,70.88
2023-02-04T18:43:01.425Z,70.74
2023-02-04T18:48:21.702Z,71.19
2023-02-04T18:53:25.282Z,71.12
2023-02-04T18:58:42.673Z,71.22
2023-02-04T19:04:00.151Z,71.27
2023-02-04T19:09:24.326Z,71.56
2023-02-04T19:14:36.307Z,71.62
2023-02-04T19:19:40.360Z,71.92
2023-02-04T19:24:42.148Z,72.10
2023-02-04T19:29:43.876Z,72.08
2023-02-04T19:34:45.487Z,72.00
2023-02-04T19:39:48.924Z,72.05
2023-02-04T19:44:51.645Z,72.16
2023-02-04T19:49:57.533Z,72.11
2023-02-04T19:55:22.539Z,72.20
2023-02-04T20:00:33.583Z,72.36
2023-02-04T20:05:35.376Z,72.67
2023-02-04T20:10:37.104Z,72.51
2023-02-04T20:15:39.005Z,72.58
2023-02-04T20:20:42.995Z,72.49
2023-02-04T20:25:47.697Z,72.44
2023-02-04T20:30:51.509Z,72.57
2023-02-04T20:35:53.162Z,72.47
2023-02-04T20:40:55.457Z,72.68
2023-02-04T20:46:00.057Z,73.00
2023-02-04T20:51:03.927Z,72.84
2023-02-04T20:56:24.883Z,73.03
2023-02-04T21:01:34.399Z,73.05
2023-02-04T21:06:36.967Z,73.12
2023-02-04T21:11:38.673Z,72.88
2023-02-04T21:16:40.292Z,73.34
2023-02-04T21:21:42.191Z,73.25
2023-02-04T21:26:44.505Z,73.39
2023-02-04T21:31:46.560Z,73.52
2023-02-04T21:36:48.381Z,73.60
2023-02-04T21:42:09.829Z,73.51
2023-02-04T21:47:11.589Z,73.95
2023-02-04T21:52:14.939Z,73.89
2023-02-04T21:57:16.643Z,74.08
2023-02-04T22:02:18.292Z,74.24
2023-02-04T22:07:20.186Z,74.09
2023-02-04T22:12:21.875Z,74.06
2023-02-04T22:17:23.608Z,74.03
2023-02-04T22:22:25.478Z,74.31
2023-02-04T22:27:27.262Z,74.35
2023-02-04T22:32:30.184Z,74.26
2023-02-04T22:37:31.958Z,74.56
2023-02-04T22:42:33.720Z,74.18
2023-02-04T22:47:35.412Z,74.19
2023-02-04T22:52:37.131Z,74.48
2023-02-04T22:57:38.761Z,74.50
2023-02-04T23:02:40.516Z,74.82
2023-02-04T23:07:42.192Z,74.42
2023-02-04T23:12:44.538Z,74.21
2023-02-04T23:17:46.355Z,74.22
2023-02-04T23:22:48.094Z,74.35
2023-02-04T23:27:49.867Z,74.43
2023-02-04T23:32:51.893Z,74.76
2023-02-04T23:37:53.723Z,74.58
2023-02-04T23:42:55.372Z,73.98
2023-02-04T23:47:56.983Z,74.48
2023-02-04T23:52:58.830Z,74.59
2023-02-04T23:58:00.668Z,74.40
